sensor_id;sensor_type;location;lat;lon;timestamp;pressure;altitude;pressure_sealevel;temperature;humidity
34124;BME280;13153;52.316;21.166;2023-06-22T00:02:18;100419.69;;;26.98;57.38
34124;BME280;13153;52.316;21.166;2023-06-22T00:04:44;100417.94;;;26.95;57.21
34124;BME280;13153;52.316;21.166;2023-06-22T00:07:10;100418.13;;;26.90;57.30
34124;BME280;13153;52.316;21.166;2023-06-22T00:09:36;100421.03;;;26.86;57.18
34124;BME280;13153;52.316;21.166;2023-06-22T00:12:02;100425.72;;;26.81;57.65
34124;BME280;13153;52.316;21.166;2023-06-22T00:14:28;100418.75;;;26.75;57.86
34124;BME280;13153;52.316;21.166;2023-06-22T00:16:54;100425.16;;;26.73;57.75
34124;BME280;13153;52.316;21.166;2023-06-22T00:19:24;100429.78;;;26.69;57.83
34124;BME280;13153;52.316;21.166;2023-06-22T00:21:51;100421.88;;;26.64;57.88
34124;BME280;13153;52.316;21.166;2023-06-22T00:24:21;100425.56;;;26.62;57.77
34124;BME280;13153;52.316;21.166;2023-06-22T00:26:48;100425.63;;;26.60;58.14
34124;BME280;13153;52.316;21.166;2023-06-22T00:29:14;100432.84;;;26.60;57.88
34124;BME280;13153;52.316;21.166;2023-06-22T00:31:40;100430.13;;;26.60;58.06
34124;BME280;13153;52.316;21.166;2023-06-22T00:34:06;100430.19;;;26.58;58.64
34124;BME280;13153;52.316;21.166;2023-06-22T00:36:35;100423.03;;;26.57;58.30
34124;BME280;13153;52.316;21.166;2023-06-22T00:39:01;100430.34;;;26.55;58.27
34124;BME280;13153;52.316;21.166;2023-06-22T00:41:27;100433.94;;;26.56;58.12
34124;BME280;13153;52.316;21.166;2023-06-22T00:43:56;100419.59;;;26.54;58.30
34124;BME280;13153;52.316;21.166;2023-06-22T00:46:22;100420.56;;;26.53;57.98
34124;BME280;13153;52.316;21.166;2023-06-22T00:48:50;100423.38;;;26.50;58.29
34124;BME280;13153;52.316;21.166;2023-06-22T00:51:17;100420.78;;;26.47;58.33
34124;BME280;13153;52.316;21.166;2023-06-22T00:53:43;100431.69;;;26.44;58.30
34124;BME280;13153;52.316;21.166;2023-06-22T00:56:10;100422.84;;;26.40;58.61
34124;BME280;13153;52.316;21.166;2023-06-22T00:58:38;100421.13;;;26.38;58.46
34124;BME280;13153;52.316;21.166;2023-06-22T01:01:07;100419.44;;;26.35;58.64
34124;BME280;13153;52.316;21.166;2023-06-22T01:03:33;100411.47;;;26.30;58.29
34124;BME280;13153;52.316;21.166;2023-06-22T01:06:07;100415.22;;;26.26;58.46
34124;BME280;13153;52.316;21.166;2023-06-22T01:08:51;100413.56;;;26.22;58.91
34124;BME280;13153;52.316;21.166;2023-06-22T01:11:39;100410.09;;;26.19;58.93
34124;BME280;13153;52.316;21.166;2023-06-22T01:14:23;100401.25;;;26.15;58.82
34124;BME280;13153;52.316;21.166;2023-06-22T01:16:53;100393.28;;;26.12;59.06
34124;BME280;13153;52.316;21.166;2023-06-22T01:19:41;100390.69;;;26.09;59.11
34124;BME280;13153;52.316;21.166;2023-06-22T01:22:12;100397.03;;;26.08;59.08
34124;BME280;13153;52.316;21.166;2023-06-22T01:30:33;100382.75;;;26.05;59.81
34124;BME280;13153;52.316;21.166;2023-06-22T01:33:01;100384.63;;;26.03;59.83
34124;BME280;13153;52.316;21.166;2023-06-22T01:35:29;100387.38;;;26.01;59.97
34124;BME280;13153;52.316;21.166;2023-06-22T01:37:55;100371.34;;;25.98;59.45
34124;BME280;13153;52.316;21.166;2023-06-22T01:40:22;100379.63;;;25.93;59.52
34124;BME280;13153;52.316;21.166;2023-06-22T01:42:50;100375.28;;;25.89;59.74
34124;BME280;13153;52.316;21.166;2023-06-22T01:45:18;100376.22;;;25.88;60.03
34124;BME280;13153;52.316;21.166;2023-06-22T01:47:44;100372.63;;;25.88;59.90
34124;BME280;13153;52.316;21.166;2023-06-22T01:50:12;100378.03;;;25.88;59.82
34124;BME280;13153;52.316;21.166;2023-06-22T01:52:37;100376.31;;;25.85;59.50
34124;BME280;13153;52.316;21.166;2023-06-22T01:55:04;100380.88;;;25.83;59.53
34124;BME280;13153;52.316;21.166;2023-06-22T01:57:32;100381.88;;;25.81;59.34
34124;BME280;13153;52.316;21.166;2023-06-22T02:00:04;100384.56;;;25.81;59.56
34124;BME280;13153;52.316;21.166;2023-06-22T02:02:43;100395.34;;;25.81;59.72
34124;BME280;13153;52.316;21.166;2023-06-22T02:05:17;100402.63;;;25.79;59.48
34124;BME280;13153;52.316;21.166;2023-06-22T02:08:04;100399.16;;;25.75;59.29
34124;BME280;13153;52.316;21.166;2023-06-22T02:10:35;100398.31;;;25.73;59.30
34124;BME280;13153;52.316;21.166;2023-06-22T02:13:06;100401.94;;;25.72;59.46
34124;BME280;13153;52.316;21.166;2023-06-22T02:15:32;100402.84;;;25.73;59.50
34124;BME280;13153;52.316;21.166;2023-06-22T02:17:59;100410.91;;;25.73;59.39
34124;BME280;13153;52.316;21.166;2023-06-22T02:20:25;100419.84;;;25.75;59.19
34124;BME280;13153;52.316;21.166;2023-06-22T02:22:51;100417.97;;;25.77;59.41
34124;BME280;13153;52.316;21.166;2023-06-22T02:25:17;100418.78;;;25.79;58.97
34124;BME280;13153;52.316;21.166;2023-06-22T02:27:43;100424.19;;;25.79;58.75
34124;BME280;13153;52.316;21.166;2023-06-22T02:30:09;100430.47;;;25.79;58.68
34124;BME280;13153;52.316;21.166;2023-06-22T02:32:35;100446.63;;;25.79;58.60
34124;BME280;13153;52.316;21.166;2023-06-22T02:35:01;100438.59;;;25.78;58.99
34124;BME280;13153;52.316;21.166;2023-06-22T02:37:31;100442.13;;;25.80;58.80
34124;BME280;13153;52.316;21.166;2023-06-22T02:39:57;100442.13;;;25.80;59.47
34124;BME280;13153;52.316;21.166;2023-06-22T02:42:23;100443.78;;;25.84;59.11
34124;BME280;13153;52.316;21.166;2023-06-22T02:44:48;100446.25;;;25.90;58.75
34124;BME280;13153;52.316;21.166;2023-06-22T02:47:15;100446.97;;;25.95;58.99
34124;BME280;13153;52.316;21.166;2023-06-22T02:49:41;100459.28;;;26.02;58.55
34124;BME280;13153;52.316;21.166;2023-06-22T02:52:07;100467.19;;;26.07;58.66
34124;BME280;13153;52.316;21.166;2023-06-22T02:54:33;100467.97;;;26.10;58.86
34124;BME280;13153;52.316;21.166;2023-06-22T02:56:59;100468.75;;;26.14;58.53
34124;BME280;13153;52.316;21.166;2023-06-22T02:59:28;100471.31;;;26.17;58.96
34124;BME280;13153;52.316;21.166;2023-06-22T03:01:54;100471.16;;;26.21;58.85
34124;BME280;13153;52.316;21.166;2023-06-22T03:04:19;100481.84;;;26.24;59.02
34124;BME280;13153;52.316;21.166;2023-06-22T03:06:45;100479.97;;;26.26;59.14
34124;BME280;13153;52.316;21.166;2023-06-22T03:09:16;100479.16;;;26.24;59.38
34124;BME280;13153;52.316;21.166;2023-06-22T03:11:42;100481.72;;;26.27;59.48
34124;BME280;13153;52.316;21.166;2023-06-22T03:14:08;100486.13;;;26.30;59.57
34124;BME280;13153;52.316;21.166;2023-06-22T03:16:34;100486.00;;;26.35;59.31
34124;BME280;13153;52.316;21.166;2023-06-22T03:19:00;100488.59;;;26.38;59.73
34124;BME280;13153;52.316;21.166;2023-06-22T03:21:28;100483.97;;;26.41;59.79
34124;BME280;13153;52.316;21.166;2023-06-22T03:23:55;100497.28;;;26.46;59.86
34124;BME280;13153;52.316;21.166;2023-06-22T03:26:20;100494.47;;;26.49;59.67
34124;BME280;13153;52.316;21.166;2023-06-22T03:28:46;100502.41;;;26.53;59.77
34124;BME280;13153;52.316;21.166;2023-06-22T03:31:12;100493.16;;;26.59;59.79
34124;BME280;13153;52.316;21.166;2023-06-22T03:33:38;100488.47;;;26.64;59.62
34124;BME280;13153;52.316;21.166;2023-06-22T03:36:04;100498.16;;;26.70;59.53
34124;BME280;13153;52.316;21.166;2023-06-22T03:38:30;100495.34;;;26.73;59.50
34124;BME280;13153;52.316;21.166;2023-06-22T03:40:55;100495.06;;;26.80;59.41
34124;BME280;13153;52.316;21.166;2023-06-22T03:43:21;100497.41;;;26.89;59.05
34124;BME280;13153;52.316;21.166;2023-06-22T03:45:47;100501.47;;;27.01;58.96
34124;BME280;13153;52.316;21.166;2023-06-22T03:48:13;100501.88;;;27.14;58.50
34124;BME280;13153;52.316;21.166;2023-06-22T03:50:38;100510.34;;;27.26;58.08
34124;BME280;13153;52.316;21.166;2023-06-22T03:53:04;100510.16;;;27.31;57.73
34124;BME280;13153;52.316;21.166;2023-06-22T03:55:30;100505.69;;;27.30;58.01
34124;BME280;13153;52.316;21.166;2023-06-22T03:57:56;100526.50;;;27.28;58.02
34124;BME280;13153;52.316;21.166;2023-06-22T04:00:25;100522.03;;;27.27;58.05
34124;BME280;13153;52.316;21.166;2023-06-22T04:02:51;100525.56;;;27.29;57.91
34124;BME280;13153;52.316;21.166;2023-06-22T04:05:17;100525.31;;;27.35;58.07
34124;BME280;13153;52.316;21.166;2023-06-22T04:07:45;100525.38;;;27.55;57.60
34124;BME280;13153;52.316;21.166;2023-06-22T04:10:11;100527.63;;;27.88;56.67
34124;BME280;13153;52.316;21.166;2023-06-22T04:12:37;100523.19;;;28.48;55.17
34124;BME280;13153;52.316;21.166;2023-06-22T04:15:03;100532.81;;;29.13;53.81
34124;BME280;13153;52.316;21.166;2023-06-22T04:17:29;100531.91;;;29.69;51.72
34124;BME280;13153;52.316;21.166;2023-06-22T04:19:54;100532.50;;;30.10;51.23
34124;BME280;13153;52.316;21.166;2023-06-22T04:22:20;100533.34;;;30.62;49.72
34124;BME280;13153;52.316;21.166;2023-06-22T04:24:46;100540.38;;;30.99;48.88
34124;BME280;13153;52.316;21.166;2023-06-22T04:27:11;100543.97;;;31.00;48.36
34124;BME280;13153;52.316;21.166;2023-06-22T04:29:37;100539.38;;;30.84;48.65
34124;BME280;13153;52.316;21.166;2023-06-22T04:32:04;100543.25;;;30.63;49.50
34124;BME280;13153;52.316;21.166;2023-06-22T04:34:31;100537.34;;;30.72;48.74
34124;BME280;13153;52.316;21.166;2023-06-22T04:36:57;100544.53;;;31.22;48.05
34124;BME280;13153;52.316;21.166;2023-06-22T04:39:23;100549.19;;;31.67;47.08
34124;BME280;13153;52.316;21.166;2023-06-22T04:41:50;100543.47;;;32.17;45.52
34124;BME280;13153;52.316;21.166;2023-06-22T04:44:18;100537.72;;;32.52;45.05
34124;BME280;13153;52.316;21.166;2023-06-22T04:46:58;100536.25;;;33.73;43.20
34124;BME280;13153;52.316;21.166;2023-06-22T04:49:29;100545.31;;;34.40;40.76
34124;BME280;13153;52.316;21.166;2023-06-22T04:52:00;100540.16;;;33.83;42.02
34124;BME280;13153;52.316;21.166;2023-06-22T04:54:26;100542.50;;;33.20;43.21
34124;BME280;13153;52.316;21.166;2023-06-22T04:56:52;100548.78;;;32.79;44.40
34124;BME280;13153;52.316;21.166;2023-06-22T04:59:27;100547.81;;;32.36;44.76
34124;BME280;13153;52.316;21.166;2023-06-22T05:01:57;100541.00;;;31.83;46.05
34124;BME280;13153;52.316;21.166;2023-06-22T05:04:25;100538.31;;;31.36;47.43
34124;BME280;13153;52.316;21.166;2023-06-22T05:06:52;100541.50;;;30.95;48.12
34124;BME280;13153;52.316;21.166;2023-06-22T05:09:18;100546.34;;;30.57;49.28
34124;BME280;13153;52.316;21.166;2023-06-22T05:11:45;100544.50;;;30.23;49.96
34124;BME280;13153;52.316;21.166;2023-06-22T05:14:11;100551.41;;;29.94;50.39
34124;BME280;13153;52.316;21.166;2023-06-22T05:16:38;100546.34;;;29.69;51.55
34124;BME280;13153;52.316;21.166;2023-06-22T05:19:04;100545.81;;;29.44;51.65
34124;BME280;13153;52.316;21.166;2023-06-22T05:21:31;100547.53;;;29.26;52.65
34124;BME280;13153;52.316;21.166;2023-06-22T05:23:57;100547.97;;;29.17;52.72
34124;BME280;13153;52.316;21.166;2023-06-22T05:26:26;100545.84;;;29.05;53.02
34124;BME280;13153;52.316;21.166;2023-06-22T05:28:52;100555.06;;;29.01;53.44
34124;BME280;13153;52.316;21.166;2023-06-22T05:31:19;100548.03;;;28.97;53.42
34124;BME280;13153;52.316;21.166;2023-06-22T05:33:46;100558.06;;;28.95;53.64
34124;BME280;13153;52.316;21.166;2023-06-22T05:36:14;100554.28;;;28.99;53.72
34124;BME280;13153;52.316;21.166;2023-06-22T05:38:40;100557.84;;;28.99;53.43
34124;BME280;13153;52.316;21.166;2023-06-22T05:41:07;100560.34;;;29.04;53.23
34124;BME280;13153;52.316;21.166;2023-06-22T05:43:34;100554.13;;;29.02;53.23
34124;BME280;13153;52.316;21.166;2023-06-22T05:46:04;100567.47;;;29.06;53.24
34124;BME280;13153;52.316;21.166;2023-06-22T05:48:30;100566.50;;;29.07;53.55
34124;BME280;13153;52.316;21.166;2023-06-22T05:50:55;100567.59;;;29.03;53.16
34124;BME280;13153;52.316;21.166;2023-06-22T05:53:21;100575.88;;;29.00;53.35
34124;BME280;13153;52.316;21.166;2023-06-22T05:55:48;100567.00;;;28.97;53.48
34124;BME280;13153;52.316;21.166;2023-06-22T05:58:14;100578.13;;;28.90;53.25
34124;BME280;13153;52.316;21.166;2023-06-22T06:00:40;100576.38;;;28.89;53.71
34124;BME280;13153;52.316;21.166;2023-06-22T06:03:10;100579.97;;;28.90;53.58
34124;BME280;13153;52.316;21.166;2023-06-22T06:05:36;100577.19;;;28.91;53.77
34124;BME280;13153;52.316;21.166;2023-06-22T06:08:05;100580.69;;;28.93;53.64
34124;BME280;13153;52.316;21.166;2023-06-22T06:10:33;100576.81;;;28.99;53.65
34124;BME280;13153;52.316;21.166;2023-06-22T06:12:59;100573.09;;;29.02;53.09
34124;BME280;13153;52.316;21.166;2023-06-22T06:15:28;100576.75;;;29.01;52.99
34124;BME280;13153;52.316;21.166;2023-06-22T06:17:54;100588.47;;;29.01;53.07
34124;BME280;13153;52.316;21.166;2023-06-22T06:20:25;100590.38;;;28.99;53.11
34124;BME280;13153;52.316;21.166;2023-06-22T06:22:51;100591.47;;;28.95;52.80
34124;BME280;13153;52.316;21.166;2023-06-22T06:25:18;100600.69;;;28.91;53.14
34124;BME280;13153;52.316;21.166;2023-06-22T06:27:51;100596.16;;;28.91;53.02
34124;BME280;13153;52.316;21.166;2023-06-22T06:30:18;100597.16;;;28.89;53.26
34124;BME280;13153;52.316;21.166;2023-06-22T06:32:45;100597.34;;;28.86;52.94
34124;BME280;13153;52.316;21.166;2023-06-22T06:35:14;100600.19;;;28.83;53.13
34124;BME280;13153;52.316;21.166;2023-06-22T06:37:46;100601.16;;;28.80;53.25
34124;BME280;13153;52.316;21.166;2023-06-22T06:40:13;100608.25;;;28.84;53.46
34124;BME280;13153;52.316;21.166;2023-06-22T06:42:42;100608.25;;;28.84;53.48
34124;BME280;13153;52.316;21.166;2023-06-22T06:45:22;100608.09;;;28.87;53.33
34124;BME280;13153;52.316;21.166;2023-06-22T06:47:50;100603.63;;;28.86;53.58
34124;BME280;13153;52.316;21.166;2023-06-22T06:50:16;100604.66;;;28.84;53.41
34124;BME280;13153;52.316;21.166;2023-06-22T06:52:42;100606.47;;;28.83;53.22
34124;BME280;13153;52.316;21.166;2023-06-22T06:55:09;100598.34;;;28.83;52.95
34124;BME280;13153;52.316;21.166;2023-06-22T06:57:39;100597.41;;;28.84;53.05
34124;BME280;13153;52.316;21.166;2023-06-22T07:00:07;100599.59;;;28.95;52.73
34124;BME280;13153;52.316;21.166;2023-06-22T07:02:42;100589.06;;;29.08;52.60
34124;BME280;13153;52.316;21.166;2023-06-22T07:05:09;100597.06;;;29.30;52.11
34124;BME280;13153;52.316;21.166;2023-06-22T07:07:36;100585.94;;;29.54;52.20
34124;BME280;13153;52.316;21.166;2023-06-22T07:10:04;100589.63;;;29.89;51.17
34124;BME280;13153;52.316;21.166;2023-06-22T07:12:30;100592.09;;;30.47;50.15
34124;BME280;13153;52.316;21.166;2023-06-22T07:15:05;100590.28;;;31.63;47.92
34124;BME280;13153;52.316;21.166;2023-06-22T07:17:34;100594.06;;;32.81;44.41
34124;BME280;13153;52.316;21.166;2023-06-22T07:20:02;100599.59;;;32.94;44.42
34124;BME280;13153;52.316;21.166;2023-06-22T07:22:33;100608.09;;;32.90;44.33
34124;BME280;13153;52.316;21.166;2023-06-22T07:24:58;100609.72;;;32.78;44.58
34124;BME280;13153;52.316;21.166;2023-06-22T07:27:24;100607.53;;;32.69;44.13
34124;BME280;13153;52.316;21.166;2023-06-22T07:29:50;100615.66;;;32.99;44.44
34124;BME280;13153;52.316;21.166;2023-06-22T07:32:16;100608.38;;;34.10;42.78
34124;BME280;13153;52.316;21.166;2023-06-22T07:34:42;100611.28;;;35.24;40.71
34124;BME280;13153;52.316;21.166;2023-06-22T07:37:08;100619.31;;;36.00;39.07
34124;BME280;13153;52.316;21.166;2023-06-22T07:39:34;100624.47;;;36.05;38.17
34124;BME280;13153;52.316;21.166;2023-06-22T07:42:00;100619.16;;;36.15;38.15
34124;BME280;13153;52.316;21.166;2023-06-22T07:44:26;100611.88;;;36.26;37.97
34124;BME280;13153;52.316;21.166;2023-06-22T07:46:51;100624.47;;;36.64;37.02
34124;BME280;13153;52.316;21.166;2023-06-22T07:49:17;100626.41;;;36.51;37.33
34124;BME280;13153;52.316;21.166;2023-06-22T07:51:43;100624.69;;;36.02;37.81
34124;BME280;13153;52.316;21.166;2023-06-22T07:54:09;100614.19;;;35.96;38.02
34124;BME280;13153;52.316;21.166;2023-06-22T07:56:37;100614.44;;;36.17;37.32
34124;BME280;13153;52.316;21.166;2023-06-22T07:59:02;100614.59;;;36.61;36.95
34124;BME280;13153;52.316;21.166;2023-06-22T08:01:29;100618.19;;;37.08;35.58
34124;BME280;13153;52.316;21.166;2023-06-22T08:03:55;100629.22;;;37.30;36.07
34124;BME280;13153;52.316;21.166;2023-06-22T08:06:21;100633.47;;;37.46;35.67
34124;BME280;13153;52.316;21.166;2023-06-22T08:08:47;100626.69;;;37.61;34.76
34124;BME280;13153;52.316;21.166;2023-06-22T08:11:18;100627.94;;;37.12;34.72
34124;BME280;13153;52.316;21.166;2023-06-22T08:13:44;100616.88;;;36.67;35.21
34124;BME280;13153;52.316;21.166;2023-06-22T08:16:09;100614.47;;;36.63;35.76
34124;BME280;13153;52.316;21.166;2023-06-22T08:18:35;100610.13;;;36.60;35.14
34124;BME280;13153;52.316;21.166;2023-06-22T08:21:01;100614.59;;;36.61;34.01
34124;BME280;13153;52.316;21.166;2023-06-22T08:23:27;100614.47;;;36.63;34.50
34124;BME280;13153;52.316;21.166;2023-06-22T08:25:53;100615.63;;;36.71;35.09
34124;BME280;13153;52.316;21.166;2023-06-22T08:28:18;100614.44;;;36.76;34.23
34124;BME280;13153;52.316;21.166;2023-06-22T08:30:44;100610.69;;;36.77;34.39
34124;BME280;13153;52.316;21.166;2023-06-22T08:33:10;100598.97;;;36.75;33.58
34124;BME280;13153;52.316;21.166;2023-06-22T08:35:36;100609.94;;;36.75;33.58
34124;BME280;13153;52.316;21.166;2023-06-22T08:38:02;100615.50;;;36.73;34.33
34124;BME280;13153;52.316;21.166;2023-06-22T08:40:27;100603.63;;;36.61;33.64
34124;BME280;13153;52.316;21.166;2023-06-22T08:42:54;100608.59;;;36.56;33.89
34124;BME280;13153;52.316;21.166;2023-06-22T08:45:20;100614.84;;;36.58;33.77
34124;BME280;13153;52.316;21.166;2023-06-22T08:47:46;100607.63;;;36.57;33.77
34124;BME280;13153;52.316;21.166;2023-06-22T08:50:12;100605.88;;;36.56;33.95
34124;BME280;13153;52.316;21.166;2023-06-22T08:52:39;100617.31;;;36.50;33.83
34124;BME280;13153;52.316;21.166;2023-06-22T08:55:08;100617.53;;;36.47;33.21
34124;BME280;13153;52.316;21.166;2023-06-22T08:57:34;100608.56;;;36.45;33.52
34124;BME280;13153;52.316;21.166;2023-06-22T09:00:05;100611.66;;;36.41;33.01
34124;BME280;13153;52.316;21.166;2023-06-22T09:02:31;100620.50;;;36.33;32.76
34124;BME280;13153;52.316;21.166;2023-06-22T09:05:04;100627.78;;;36.21;33.26
34124;BME280;13153;52.316;21.166;2023-06-22T09:07:30;100625.63;;;36.14;32.80
34124;BME280;13153;52.316;21.166;2023-06-22T09:09:56;100624.81;;;36.00;33.26
34124;BME280;13153;52.316;21.166;2023-06-22T09:12:22;100629.34;;;35.89;32.30
34124;BME280;13153;52.316;21.166;2023-06-22T09:14:51;100631.34;;;35.74;32.83
34124;BME280;13153;52.316;21.166;2023-06-22T09:17:17;100634.00;;;35.63;32.80
34124;BME280;13153;52.316;21.166;2023-06-22T09:19:43;100627.78;;;35.61;32.93
34124;BME280;13153;52.316;21.166;2023-06-22T09:22:09;100620.00;;;35.55;32.23
34124;BME280;13153;52.316;21.166;2023-06-22T09:24:34;100612.47;;;35.46;32.06
34124;BME280;13153;52.316;21.166;2023-06-22T09:27:00;100616.31;;;35.43;31.98
34124;BME280;13153;52.316;21.166;2023-06-22T09:29:26;100619.59;;;35.35;30.95
34124;BME280;13153;52.316;21.166;2023-06-22T09:31:52;100610.84;;;35.30;32.21
34124;BME280;13153;52.316;21.166;2023-06-22T09:34:21;100610.84;;;35.30;32.31
34124;BME280;13153;52.316;21.166;2023-06-22T09:36:47;100600.31;;;35.24;32.41
34124;BME280;13153;52.316;21.166;2023-06-22T09:39:13;100599.72;;;35.21;31.30
34124;BME280;13153;52.316;21.166;2023-06-22T09:41:39;100608.13;;;35.18;30.33
34124;BME280;13153;52.316;21.166;2023-06-22T09:44:04;100613.81;;;35.15;30.56
34124;BME280;13153;52.316;21.166;2023-06-22T09:46:30;100604.63;;;35.16;30.98
34124;BME280;13153;52.316;21.166;2023-06-22T09:48:56;100592.94;;;35.14;31.24
34124;BME280;13153;52.316;21.166;2023-06-22T09:51:23;100602.22;;;35.11;30.96
34124;BME280;13153;52.316;21.166;2023-06-22T09:53:50;100602.56;;;35.06;30.38
34124;BME280;13153;52.316;21.166;2023-06-22T09:56:16;100593.69;;;35.03;30.81
34124;BME280;13153;52.316;21.166;2023-06-22T09:58:44;100597.41;;;35.02;31.98
34124;BME280;13153;52.316;21.166;2023-06-22T10:01:10;100594.03;;;34.98;31.53
34124;BME280;13153;52.316;21.166;2023-06-22T10:03:37;100599.38;;;34.87;30.75
34124;BME280;13153;52.316;21.166;2023-06-22T10:06:03;100596.22;;;34.81;31.76
34124;BME280;13153;52.316;21.166;2023-06-22T10:08:29;100597.38;;;34.76;30.94
34124;BME280;13153;52.316;21.166;2023-06-22T10:10:55;100598.38;;;34.75;30.95
34124;BME280;13153;52.316;21.166;2023-06-22T10:13:21;100593.78;;;34.76;30.83
34124;BME280;13153;52.316;21.166;2023-06-22T10:15:46;100592.13;;;34.73;30.33
34124;BME280;13153;52.316;21.166;2023-06-22T10:18:17;100592.69;;;34.66;30.99
34124;BME280;13153;52.316;21.166;2023-06-22T10:20:44;100591.06;;;34.63;31.29
34124;BME280;13153;52.316;21.166;2023-06-22T10:23:10;100588.31;;;34.63;31.85
34124;BME280;13153;52.316;21.166;2023-06-22T10:25:36;100596.84;;;34.59;31.20
34124;BME280;13153;52.316;21.166;2023-06-22T10:28:02;100597.94;;;34.56;31.30
34124;BME280;13153;52.316;21.166;2023-06-22T10:30:27;100594.66;;;34.51;31.51
34124;BME280;13153;52.316;21.166;2023-06-22T10:32:54;100593.97;;;34.48;30.42
34124;BME280;13153;52.316;21.166;2023-06-22T10:35:20;100597.81;;;34.45;30.54
34124;BME280;13153;52.316;21.166;2023-06-22T10:37:46;100583.16;;;34.46;31.86
34124;BME280;13153;52.316;21.166;2023-06-22T10:40:14;100578.56;;;34.47;31.74
34124;BME280;13153;52.316;21.166;2023-06-22T10:42:41;100584.25;;;34.43;31.38
34124;BME280;13153;52.316;21.166;2023-06-22T10:45:08;100585.34;;;34.41;32.25
34124;BME280;13153;52.316;21.166;2023-06-22T10:47:34;100576.38;;;34.39;31.04
34124;BME280;13153;52.316;21.166;2023-06-22T10:50:01;100572.97;;;34.35;32.78
34124;BME280;13153;52.316;21.166;2023-06-22T10:52:27;100569.75;;;34.29;33.16
34124;BME280;13153;52.316;21.166;2023-06-22T10:54:53;100566.34;;;34.25;33.07
34124;BME280;13153;52.316;21.166;2023-06-22T10:57:19;100574.66;;;34.24;32.84
34124;BME280;13153;52.316;21.166;2023-06-22T10:59:44;100569.97;;;34.26;33.50
34124;BME280;13153;52.316;21.166;2023-06-22T11:02:10;100568.22;;;34.25;33.46
34124;BME280;13153;52.316;21.166;2023-06-22T11:04:36;100567.44;;;34.23;32.60
34124;BME280;13153;52.316;21.166;2023-06-22T11:07:02;100568.41;;;34.22;33.49
34124;BME280;13153;52.316;21.166;2023-06-22T11:09:28;100547.34;;;34.24;33.12
34124;BME280;13153;52.316;21.166;2023-06-22T11:11:56;100550.72;;;34.27;34.44
34124;BME280;13153;52.316;21.166;2023-06-22T11:14:21;100555.09;;;34.30;33.73
34124;BME280;13153;52.316;21.166;2023-06-22T11:16:48;100551.44;;;34.31;34.20
34124;BME280;13153;52.316;21.166;2023-06-22T11:19:14;100554.81;;;34.34;33.56
34124;BME280;13153;52.316;21.166;2023-06-22T11:21:39;100553.84;;;34.35;34.17
34124;BME280;13153;52.316;21.166;2023-06-22T11:24:05;100548.47;;;34.34;33.68
34124;BME280;13153;52.316;21.166;2023-06-22T11:26:31;100553.84;;;34.35;33.09
34124;BME280;13153;52.316;21.166;2023-06-22T11:28:58;100549.03;;;34.39;34.54
34124;BME280;13153;52.316;21.166;2023-06-22T11:31:24;100549.59;;;34.44;34.74
34124;BME280;13153;52.316;21.166;2023-06-22T11:33:51;100549.59;;;34.44;34.33
34124;BME280;13153;52.316;21.166;2023-06-22T11:36:17;100557.03;;;34.42;34.18
34124;BME280;13153;52.316;21.166;2023-06-22T11:38:43;100558.00;;;34.41;33.71
34124;BME280;13153;52.316;21.166;2023-06-22T11:41:10;100558.00;;;34.41;32.59
34124;BME280;13153;52.316;21.166;2023-06-22T11:43:36;100552.66;;;34.39;32.41
34124;BME280;13153;52.316;21.166;2023-06-22T11:46:03;100550.63;;;34.29;31.86
34124;BME280;13153;52.316;21.166;2023-06-22T11:48:30;100546.13;;;34.15;31.72
34124;BME280;13153;52.316;21.166;2023-06-22T11:50:56;100553.75;;;34.10;32.83
34124;BME280;13153;52.316;21.166;2023-06-22T11:53:26;100550.38;;;34.06;32.35
34124;BME280;13153;52.316;21.166;2023-06-22T11:55:52;100554.63;;;34.10;33.70
34124;BME280;13153;52.316;21.166;2023-06-22T11:58:21;100547.88;;;34.16;32.27
34124;BME280;13153;52.316;21.166;2023-06-22T12:00:47;100548.94;;;34.13;32.70
34124;BME280;13153;52.316;21.166;2023-06-22T12:03:13;100558.91;;;34.15;33.63
34124;BME280;13153;52.316;21.166;2023-06-22T12:05:40;100555.06;;;34.17;33.48
34124;BME280;13153;52.316;21.166;2023-06-22T12:08:06;100545.59;;;34.23;33.08
34124;BME280;13153;52.316;21.166;2023-06-22T12:10:32;100547.81;;;34.30;34.19
34124;BME280;13153;52.316;21.166;2023-06-22T12:12:58;100561.94;;;34.37;33.90
34124;BME280;13153;52.316;21.166;2023-06-22T12:15:26;100556.25;;;34.40;33.19
34124;BME280;13153;52.316;21.166;2023-06-22T12:17:52;100556.25;;;34.40;32.79
34124;BME280;13153;52.316;21.166;2023-06-22T12:20:18;100550.03;;;34.38;32.60
34124;BME280;13153;52.316;21.166;2023-06-22T12:22:45;100558.44;;;34.35;32.89
34124;BME280;13153;52.316;21.166;2023-06-22T12:25:11;100552.97;;;34.35;32.24
34124;BME280;13153;52.316;21.166;2023-06-22T12:27:37;100545.97;;;34.31;32.82
34124;BME280;13153;52.316;21.166;2023-06-22T12:30:04;100537.78;;;34.31;32.63
34124;BME280;13153;52.316;21.166;2023-06-22T12:32:30;100539.31;;;34.35;33.21
34124;BME280;13153;52.316;21.166;2023-06-22T12:34:56;100538.53;;;34.33;31.80
34124;BME280;13153;52.316;21.166;2023-06-22T12:37:23;100540.88;;;34.25;31.67
34124;BME280;13153;52.316;21.166;2023-06-22T12:39:49;100534.75;;;34.21;32.71
34124;BME280;13153;52.316;21.166;2023-06-22T12:42:16;100537.59;;;34.20;31.76
34124;BME280;13153;52.316;21.166;2023-06-22T12:44:42;100534.97;;;34.18;32.27
34124;BME280;13153;52.316;21.166;2023-06-22T12:47:09;100540.13;;;34.23;32.13